createdAt,value
2019-01-28T00:01:15.176Z,7.67
2019-01-28T00:03:45.798Z,6.00
2019-01-28T00:06:16.326Z,11.20
2019-01-28T00:08:46.764Z,11.87
2019-01-28T00:11:17.178Z,8.80
2019-01-28T00:13:47.618Z,11.67
2019-01-28T00:16:18.043Z,12.67
2019-01-28T00:18:48.472Z,6.50
2019-01-28T00:21:18.886Z,8.17
2019-01-28T00:23:49.455Z,10.70
2019-01-28T00:26:19.842Z,5.90
2019-01-28T00:28:50.286Z,8.07
2019-01-28T00:31:20.873Z,10.10
2019-01-28T00:33:51.329Z,6.23
2019-01-28T00:36:21.930Z,7.07
2019-01-28T00:38:52.561Z,11.50
2019-01-28T00:41:23.033Z,5.23
2019-01-28T00:43:53.626Z,6.13
2019-01-28T00:46:24.079Z,7.23
2019-01-28T00:48:54.506Z,10.17
2019-01-28T00:51:24.938Z,8.47
2019-01-28T00:53:55.419Z,4.93
2019-01-28T00:56:25.966Z,5.07
2019-01-28T00:58:56.573Z,6.97
2019-01-28T01:01:27.064Z,12.10
2019-01-28T01:03:57.477Z,5.13
2019-01-28T01:06:27.906Z,8.23
2019-01-28T01:08:58.347Z,7.57
2019-01-28T01:11:28.773Z,6.50
2019-01-28T01:13:59.185Z,7.73
2019-01-28T01:16:29.627Z,8.63
2019-01-28T01:19:00.052Z,11.13
2019-01-28T01:21:30.466Z,5.70
2019-01-28T01:24:00.894Z,8.03
2019-01-28T01:26:31.380Z,7.80
2019-01-28T01:29:01.850Z,4.77
2019-01-28T01:31:32.291Z,10.17
2019-01-28T01:34:02.727Z,6.47
2019-01-28T01:36:33.128Z,8.10
2019-01-28T01:39:05.004Z,8.20
2019-01-28T01:41:35.419Z,8.50
2019-01-28T01:44:06.155Z,4.90
2019-01-28T01:46:36.577Z,7.70
2019-01-28T01:49:07.008Z,8.23
2019-01-28T01:51:37.434Z,5.20
2019-01-28T01:54:07.862Z,5.93
2019-01-28T01:56:38.370Z,6.47
2019-01-28T01:59:08.878Z,6.63
2019-01-28T02:01:39.345Z,3.43
2019-01-28T02:04:09.991Z,4.47
2019-01-28T02:06:40.622Z,4.27
2019-01-28T02:09:11.345Z,7.20
2019-01-28T02:11:41.769Z,5.80
2019-01-28T02:14:12.198Z,7.33
2019-01-28T02:16:42.628Z,8.80
2019-01-28T02:19:13.049Z,6.07
2019-01-28T02:21:43.477Z,6.50
2019-01-28T02:24:14.011Z,8.97
2019-01-28T02:26:44.434Z,5.53
2019-01-28T02:29:14.918Z,10.20
2019-01-28T02:31:45.395Z,8.80
2019-01-28T02:34:15.819Z,6.90
2019-01-28T02:36:46.246Z,4.33
2019-01-28T02:39:16.676Z,3.77
2019-01-28T02:41:47.099Z,4.27
2019-01-28T02:44:17.527Z,4.17
2019-01-28T02:46:58.682Z,10.23
2019-01-28T02:49:29.266Z,3.03
2019-01-28T02:51:59.673Z,3.43
2019-01-28T02:54:30.100Z,4.73
2019-01-28T02:57:00.531Z,4.53
2019-01-28T02:59:31.356Z,1.97
2019-01-28T03:02:01.792Z,4.43
2019-01-28T03:04:32.207Z,3.70
2019-01-28T03:07:02.635Z,3.53
2019-01-28T03:09:33.063Z,1.60
2019-01-28T03:12:03.487Z,4.57
2019-01-28T03:14:33.918Z,2.70
2019-01-28T03:17:10.795Z,1.90
2019-01-28T03:19:41.231Z,2.27
2019-01-28T03:22:11.649Z,7.07
2019-01-28T03:24:42.075Z,2.67
2019-01-28T03:27:12.503Z,4.67
2019-01-28T03:29:42.927Z,4.50
2019-01-28T03:32:13.387Z,4.57
2019-01-28T03:34:43.794Z,2.87
2019-01-28T03:37:14.210Z,4.03
2019-01-28T03:39:44.648Z,4.83
2019-01-28T03:42:15.061Z,2.27
2019-01-28T03:44:45.499Z,4.83
2019-01-28T03:47:16.019Z,3.97
2019-01-28T03:49:46.604Z,3.67
2019-01-28T03:52:18.003Z,4.13
2019-01-28T03:54:48.426Z,2.07
2019-01-28T03:57:18.858Z,5.60
2019-01-28T03:59:49.283Z,4.43
2019-01-28T04:02:19.763Z,4.80
2019-01-28T04:04:50.242Z,5.50
2019-01-28T04:07:20.662Z,5.33
2019-01-28T04:09:51.090Z,3.40
2019-01-28T04:12:21.518Z,4.80
2019-01-28T04:14:51.946Z,4.53
2019-01-28T04:17:22.370Z,3.73
2019-01-28T04:19:52.799Z,2.90
2019-01-28T04:22:23.237Z,4.50
2019-01-28T04:24:53.674Z,5.43
2019-01-28T04:27:42.935Z,5.83
2019-01-28T04:30:21.324Z,5.73
2019-01-28T04:32:51.813Z,6.43
2019-01-28T04:35:22.398Z,5.67
2019-01-28T04:37:52.820Z,3.13
2019-01-28T04:40:23.252Z,4.63
2019-01-28T04:42:53.676Z,3.27
2019-01-28T04:45:24.105Z,5.70
2019-01-28T04:47:54.636Z,5.73
2019-01-28T04:50:25.069Z,3.50
2019-01-28T04:52:55.497Z,7.63
2019-01-28T04:55:25.927Z,5.00
2019-01-28T04:57:56.341Z,5.90
2019-01-28T05:00:27.306Z,6.53
2019-01-28T05:02:59.048Z,4.83
2019-01-28T05:05:29.598Z,6.30
2019-01-28T05:08:00.094Z,5.40
2019-01-28T05:10:30.579Z,8.90
2019-01-28T05:13:01.153Z,11.67
2019-01-28T05:15:31.582Z,6.50
2019-01-28T05:18:02.049Z,5.73
2019-01-28T05:20:32.439Z,9.73
2019-01-28T05:23:02.874Z,5.20
2019-01-28T05:25:33.291Z,5.93
2019-01-28T05:28:03.729Z,5.37
2019-01-28T05:30:34.245Z,6.57
2019-01-28T05:33:04.774Z,6.30
2019-01-28T05:35:35.383Z,9.80
2019-01-28T05:38:05.833Z,7.70
2019-01-28T05:40:36.262Z,5.33
2019-01-28T05:43:06.689Z,4.80
2019-01-28T05:45:37.116Z,4.37
2019-01-28T05:48:07.730Z,4.37
2019-01-28T05:50:38.174Z,8.13
2019-01-28T05:53:08.601Z,4.77
2019-01-28T05:55:39.038Z,10.33
2019-01-28T05:58:09.454Z,6.87
2019-01-28T06:00:43.375Z,4.10
2019-01-28T06:03:13.790Z,6.63
2019-01-28T06:05:44.218Z,7.40
2019-01-28T06:08:14.698Z,8.30
2019-01-28T06:10:45.174Z,5.97
2019-01-28T06:13:15.605Z,5.90
2019-01-28T06:15:46.026Z,5.33
2019-01-28T06:18:16.465Z,6.30
2019-01-28T06:20:46.882Z,4.33
2019-01-28T06:23:17.310Z,3.77
2019-01-28T06:25:47.840Z,5.60
2019-01-28T06:28:18.266Z,5.37
2019-01-28T06:30:48.874Z,11.73
2019-01-28T06:33:19.337Z,7.77
2019-01-28T06:35:49.761Z,6.63
2019-01-28T06:38:20.231Z,8.33
2019-01-28T06:40:50.717Z,7.47
2019-01-28T06:43:21.133Z,6.83
2019-01-28T06:45:51.562Z,6.17
2019-01-28T06:48:22.003Z,4.67
2019-01-28T06:50:52.518Z,5.30
2019-01-28T06:53:22.955Z,11.23
2019-01-28T06:55:53.371Z,7.67
2019-01-28T06:58:23.809Z,5.53
2019-01-28T07:00:54.226Z,6.27
2019-01-28T07:03:24.650Z,4.63
2019-01-28T07:05:55.085Z,6.30
2019-01-28T07:08:25.505Z,9.73
2019-01-28T07:10:56.070Z,7.70
2019-01-28T07:13:26.473Z,4.57
2019-01-28T07:15:56.890Z,6.23
2019-01-28T07:18:27.319Z,3.43
2019-01-28T07:20:57.746Z,10.40
2019-01-28T07:23:28.170Z,7.60
2019-01-28T07:25:58.608Z,14.20
2019-01-28T07:28:29.025Z,9.03
2019-01-28T07:30:59.482Z,7.90
2019-01-28T07:33:29.889Z,11.47
2019-01-28T07:36:00.306Z,13.20
2019-01-28T07:38:30.735Z,12.07
2019-01-28T07:41:01.171Z,8.70
2019-01-28T07:43:31.726Z,5.23
2019-01-28T07:46:02.118Z,9.33
2019-01-28T07:48:32.541Z,5.47
2019-01-28T07:51:03.149Z,8.70
2019-01-28T07:53:33.602Z,6.07
2019-01-28T07:56:04.087Z,8.93
2019-01-28T07:58:34.734Z,6.50
2019-01-28T08:01:05.292Z,6.77
2019-01-28T08:03:35.722Z,8.70
2019-01-28T08:06:06.464Z,5.70
2019-01-28T08:08:36.998Z,9.07
2019-01-28T08:11:07.419Z,7.37
2019-01-28T08:13:37.850Z,9.33
2019-01-28T08:16:08.318Z,9.50
2019-01-28T08:18:38.807Z,7.40
2019-01-28T08:21:09.230Z,5.33
2019-01-28T08:23:39.647Z,8.43
2019-01-28T08:26:10.086Z,17.17
2019-01-28T08:28:40.515Z,8.13
2019-01-28T08:31:10.986Z,4.67
2019-01-28T08:33:41.458Z,14.17
2019-01-28T08:36:11.898Z,8.53
2019-01-28T08:38:42.318Z,5.83
2019-01-28T08:41:12.741Z,8.97
2019-01-28T08:43:43.167Z,10.13
2019-01-28T08:46:13.918Z,15.47
2019-01-28T08:48:45.351Z,8.73
2019-01-28T08:51:15.778Z,8.43
2019-01-28T08:53:46.306Z,8.03
2019-01-28T08:56:17.036Z,8.57
2019-01-28T08:58:47.582Z,11.70
2019-01-28T09:01:18.009Z,13.23
2019-01-28T09:03:48.426Z,8.40
2019-01-28T09:06:18.853Z,4.13
2019-01-28T09:08:49.289Z,9.13
2019-01-28T09:11:19.706Z,8.00
2019-01-28T09:13:50.134Z,9.33
2019-01-28T09:16:20.880Z,7.10
2019-01-28T09:18:51.345Z,5.20
2019-01-28T09:21:21.823Z,8.57
2019-01-28T09:23:52.250Z,10.83
2019-01-28T09:26:22.678Z,10.20
2019-01-28T09:28:53.102Z,4.83
2019-01-28T09:31:23.574Z,8.27
2019-01-28T09:33:54.062Z,10.13
2019-01-28T09:36:24.485Z,5.73
2019-01-28T09:38:54.913Z,6.50
2019-01-28T09:41:25.342Z,8.50
2019-01-28T09:43:55.766Z,5.43
2019-01-28T09:46:26.195Z,7.53
2019-01-28T09:48:56.674Z,3.80
2019-01-28T09:51:27.154Z,9.17
2019-01-28T09:53:57.750Z,5.83
2019-01-28T09:56:28.214Z,7.07
2019-01-28T09:58:58.649Z,10.00
2019-01-28T10:01:29.067Z,7.80
2019-01-28T10:03:59.490Z,6.30
2019-01-28T10:06:30.239Z,8.50
2019-01-28T10:09:00.654Z,9.93
2019-01-28T10:11:31.078Z,7.90
2019-01-28T10:14:01.506Z,10.43
2019-01-28T10:16:31.946Z,5.90
2019-01-28T10:19:02.372Z,10.87
2019-01-28T10:21:33.106Z,3.10
2019-01-28T10:24:03.522Z,7.20
2019-01-28T10:26:33.950Z,11.67
2019-01-28T10:29:04.976Z,8.33
2019-01-28T10:31:35.452Z,9.70
2019-01-28T10:34:06.448Z,5.87
2019-01-28T10:36:36.989Z,13.13
2019-01-28T10:39:11.567Z,4.97
2019-01-28T10:41:42.071Z,6.57
2019-01-28T10:44:12.479Z,9.47
2019-01-28T10:46:42.894Z,7.53
2019-01-28T10:49:13.426Z,12.93
2019-01-28T10:51:44.173Z,5.70
2019-01-28T10:54:14.690Z,10.63
2019-01-28T10:56:45.114Z,6.43
2019-01-28T10:59:15.560Z,9.27
2019-01-28T11:01:45.968Z,7.97
2019-01-28T11:04:16.602Z,4.23
2019-01-28T11:06:47.025Z,5.43
2019-01-28T11:09:17.456Z,3.47
2019-01-28T11:11:47.934Z,6.25
2019-01-28T11:14:18.409Z,6.55
2019-01-28T11:16:48.963Z,6.83
2019-01-28T11:19:19.396Z,6.57
2019-01-28T11:21:49.822Z,7.03
2019-01-28T11:24:20.296Z,8.50
2019-01-28T11:26:50.864Z,5.80
2019-01-28T11:29:21.322Z,4.40
2019-01-28T11:31:52.250Z,5.80
2019-01-28T11:34:22.909Z,8.47
2019-01-28T11:36:53.475Z,7.77
2019-01-28T11:39:24.056Z,7.27
2019-01-28T11:41:54.543Z,3.77
2019-01-28T11:44:25.120Z,9.13
2019-01-28T11:46:55.856Z,5.37
2019-01-28T11:49:26.499Z,3.03
2019-01-28T11:51:56.976Z,5.13
2019-01-28T11:54:27.496Z,5.00
2019-01-28T11:56:57.979Z,7.93
2019-01-28T11:59:28.462Z,5.70
2019-01-28T12:01:58.891Z,4.90
2019-01-28T12:04:29.319Z,4.10
2019-01-28T12:06:59.736Z,4.13
2019-01-28T12:09:30.161Z,6.20
2019-01-28T12:12:00.586Z,7.23
2019-01-28T12:14:31.016Z,3.77
2019-01-28T12:17:01.541Z,4.07
2019-01-28T12:19:31.981Z,6.83
2019-01-28T12:22:02.409Z,9.60
2019-01-28T12:24:32.826Z,4.00
2019-01-28T12:27:03.570Z,3.33
2019-01-28T12:29:34.044Z,3.93
2019-01-28T12:32:04.850Z,2.70
2019-01-28T12:34:39.658Z,1.97
2019-01-28T12:37:07.530Z,6.97
2019-01-28T12:39:37.947Z,6.53
2019-01-28T12:42:08.374Z,7.07
2019-01-28T12:44:38.798Z,4.87
2019-01-28T12:47:09.237Z,6.77
2019-01-28T12:49:39.664Z,2.67
2019-01-28T12:52:10.102Z,4.20
2019-01-28T12:54:40.510Z,2.87
2019-01-28T12:57:11.114Z,5.73
2019-01-28T12:59:41.744Z,4.67
2019-01-28T13:02:12.580Z,8.20
2019-01-28T13:04:43.037Z,7.03
2019-01-28T13:07:13.462Z,8.73
2019-01-28T13:09:43.961Z,5.17
2019-01-28T13:12:14.418Z,4.60
2019-01-28T13:14:44.846Z,5.23
2019-01-28T13:17:15.274Z,6.30
2019-01-28T13:19:47.399Z,7.10
2019-01-28T13:22:26.982Z,4.73
2019-01-28T13:24:57.417Z,13.33
2019-01-28T13:27:27.833Z,5.40
2019-01-28T13:30:18.350Z,8.83
2019-01-28T13:32:49.405Z,13.90
2019-01-28T13:35:22.669Z,3.60
2019-01-28T13:37:53.105Z,6.33
2019-01-28T13:40:23.622Z,4.27
2019-01-28T13:42:54.061Z,7.70
2019-01-28T13:45:24.858Z,6.50
2019-01-28T13:47:56.036Z,6.13
2019-01-28T13:50:26.766Z,5.20
2019-01-28T13:52:57.513Z,3.85
2019-01-28T13:55:27.928Z,4.03
2019-01-28T13:57:58.662Z,5.58
2019-01-28T14:00:29.906Z,3.52
2019-01-28T14:03:00.911Z,5.78
2019-01-28T14:05:31.490Z,4.80
2019-01-28T14:08:01.917Z,2.83
2019-01-28T14:10:32.521Z,6.33
2019-01-28T14:13:02.966Z,6.78
2019-01-28T14:15:38.463Z,5.97
2019-01-28T14:18:10.756Z,7.23
2019-01-28T14:20:41.766Z,4.40
2019-01-28T14:23:12.406Z,8.00
2019-01-28T14:25:42.883Z,4.07
2019-01-28T14:28:14.103Z,6.00
2019-01-28T14:30:49.267Z,6.30
2019-01-28T14:33:19.943Z,5.40
2019-01-28T14:35:50.327Z,6.63
2019-01-28T14:38:20.867Z,8.30
2019-01-28T14:40:51.381Z,6.57
2019-01-28T14:43:22.028Z,6.37
2019-01-28T14:45:52.566Z,14.23
2019-01-28T14:48:22.970Z,5.50
2019-01-28T14:50:53.716Z,4.23
2019-01-28T14:53:24.135Z,5.37
2019-01-28T14:55:54.559Z,3.90
2019-01-28T14:58:25.201Z,11.90
2019-01-28T15:00:55.618Z,5.57
2019-01-28T15:03:26.056Z,2.70
2019-01-28T15:05:56.528Z,5.87
2019-01-28T15:08:27.029Z,5.43
2019-01-28T15:10:57.430Z,14.70
2019-01-28T15:13:27.857Z,6.00
2019-01-28T15:15:58.293Z,15.13
2019-01-28T15:18:28.926Z,8.00
2019-01-28T15:20:59.355Z,5.23
2019-01-28T15:23:29.766Z,8.90
2019-01-28T15:26:00.205Z,12.03
2019-01-28T15:28:30.621Z,7.73
2019-01-28T15:31:01.059Z,7.27
2019-01-28T15:33:31.517Z,6.23
2019-01-28T15:36:02.209Z,6.23
2019-01-28T15:38:32.639Z,7.50
2019-01-28T15:41:03.177Z,4.30
2019-01-28T15:43:33.606Z,5.93
2019-01-28T15:46:04.237Z,6.27
2019-01-28T15:48:34.667Z,11.30
2019-01-28T15:51:06.013Z,4.93
2019-01-28T15:53:36.530Z,8.40
2019-01-28T15:56:07.161Z,8.23
2019-01-28T15:58:37.589Z,2.23
2019-01-28T16:01:08.327Z,3.60
2019-01-28T16:03:38.750Z,5.93
2019-01-28T16:06:09.190Z,8.53
2019-01-28T16:08:39.658Z,2.87
2019-01-28T16:11:10.133Z,5.00
2019-01-28T16:13:40.562Z,6.00
2019-01-28T16:16:11.398Z,10.83
2019-01-28T16:18:41.836Z,4.57
2019-01-28T16:21:12.607Z,5.30
2019-01-28T16:24:02.205Z,6.17
2019-01-28T16:26:32.714Z,6.57
2019-01-28T16:29:03.194Z,6.10
2019-01-28T16:31:33.721Z,5.87
2019-01-28T16:34:04.252Z,5.27
2019-01-28T16:36:34.857Z,7.47
2019-01-28T16:39:08.008Z,8.53
2019-01-28T16:41:38.702Z,8.70
2019-01-28T16:44:09.146Z,8.93
2019-01-28T16:46:39.560Z,8.13
2019-01-28T16:49:10.002Z,10.83
2019-01-28T16:51:40.414Z,7.27
2019-01-28T16:54:11.045Z,9.40
2019-01-28T16:56:41.475Z,7.67
2019-01-28T16:59:11.913Z,10.63
2019-01-28T17:01:42.430Z,10.20
2019-01-28T17:04:13.063Z,10.73
2019-01-28T17:06:43.501Z,11.60
2019-01-28T17:09:14.094Z,9.83
2019-01-28T17:11:44.585Z,21.50
2019-01-28T17:14:14.987Z,7.93
2019-01-28T17:16:45.403Z,16.60
2019-01-28T17:19:15.829Z,10.27
2019-01-28T17:21:46.257Z,16.63
2019-01-28T17:24:16.683Z,13.30
2019-01-28T17:26:47.168Z,13.70
2019-01-28T17:29:17.785Z,13.97
2019-01-28T17:32:07.026Z,20.23
2019-01-28T17:34:37.490Z,18.07
2019-01-28T17:37:08.174Z,13.33
2019-01-28T17:39:38.609Z,13.33
2019-01-28T17:42:09.111Z,15.97
2019-01-28T17:44:39.567Z,14.50
2019-01-28T17:47:29.042Z,13.07
2019-01-28T17:50:01.338Z,15.93
2019-01-28T17:52:31.727Z,11.97
2019-01-28T17:55:02.154Z,16.20
2019-01-28T17:57:32.582Z,14.00
2019-01-28T18:00:03.121Z,16.70
2019-01-28T18:02:33.742Z,13.63
2019-01-28T18:05:04.480Z,17.83
2019-01-28T18:07:34.902Z,16.23
2019-01-28T18:10:06.407Z,19.73
2019-01-28T18:12:37.100Z,17.73
2019-01-28T18:15:10.249Z,21.57
2019-01-28T18:17:40.705Z,15.73
2019-01-28T18:20:12.722Z,13.00
2019-01-28T18:22:47.102Z,13.80
2019-01-28T18:25:19.618Z,12.80
2019-01-28T18:27:50.098Z,9.03
2019-01-28T18:30:27.806Z,15.30
2019-01-28T18:32:58.221Z,11.13
2019-01-28T18:35:28.863Z,14.37
2019-01-28T18:37:59.289Z,13.63
2019-01-28T18:40:29.706Z,19.40
2019-01-28T18:43:00.234Z,10.27
2019-01-28T18:45:30.662Z,12.63
2019-01-28T18:48:01.174Z,10.17
2019-01-28T18:50:31.861Z,13.27
2019-01-28T18:53:02.568Z,13.03
2019-01-28T18:55:32.987Z,13.30
2019-01-28T18:58:03.423Z,10.07
2019-01-28T19:00:34.099Z,13.03
2019-01-28T19:03:05.291Z,29.93
2019-01-28T19:05:57.437Z,15.57
2019-01-28T19:08:45.723Z,12.57
2019-01-28T19:11:27.682Z,11.47
2019-01-28T19:14:17.261Z,8.23
2019-01-28T19:17:01.509Z,16.90
2019-01-28T19:20:02.963Z,26.50
2019-01-28T19:22:33.490Z,24.87
2019-01-28T19:25:04.290Z,17.40
2019-01-28T19:27:34.755Z,16.80
2019-01-28T19:30:06.558Z,13.90
2019-01-28T19:32:37.040Z,10.77
2019-01-28T19:35:07.725Z,13.03
2019-01-28T19:37:38.202Z,11.20
2019-01-28T19:40:09.489Z,12.10
2019-01-28T19:42:40.094Z,9.90
2019-01-28T19:45:17.639Z,11.87
2019-01-28T19:47:48.483Z,12.57
2019-01-28T19:50:23.914Z,9.00
2019-01-28T19:52:54.494Z,11.00
2019-01-28T19:55:25.183Z,8.30
2019-01-28T19:57:55.646Z,13.30
2019-01-28T20:00:29.702Z,13.40
2019-01-28T20:03:02.445Z,15.67
2019-01-28T20:05:33.074Z,11.53
2019-01-28T20:08:03.601Z,11.00
2019-01-28T20:10:34.028Z,9.10
2019-01-28T20:13:04.538Z,12.93
2019-01-28T20:15:35.261Z,11.43
2019-01-28T20:18:05.883Z,10.93
2019-01-28T20:20:36.725Z,12.80
2019-01-28T20:23:07.453Z,12.93
2019-01-28T20:25:38.041Z,10.77
2019-01-28T20:28:08.982Z,12.13
2019-01-28T20:30:39.557Z,11.60
2019-01-28T20:33:10.088Z,14.93
2019-01-28T20:35:40.603Z,15.07
2019-01-28T20:38:15.776Z,14.63
2019-01-28T20:40:43.147Z,26.43
2019-01-28T20:43:13.636Z,18.23
2019-01-28T20:45:45.160Z,24.67
2019-01-28T20:48:16.201Z,28.00
2019-01-28T20:50:46.884Z,25.87
2019-01-28T20:53:17.459Z,21.87
2019-01-28T20:55:48.234Z,23.93
2019-01-28T20:58:19.134Z,29.93
2019-01-28T21:00:50.116Z,28.60
2019-01-28T21:03:21.085Z,22.73
2019-01-28T21:05:52.017Z,21.77
2019-01-28T21:08:22.965Z,20.67
2019-01-28T21:10:54.013Z,23.50
2019-01-28T21:13:24.942Z,14.33
2019-01-28T21:15:55.770Z,16.40
2019-01-28T21:18:26.840Z,16.37
2019-01-28T21:20:57.658Z,12.47
2019-01-28T21:23:28.584Z,14.93
2019-01-28T21:25:59.351Z,14.90
2019-01-28T21:28:29.906Z,19.47
2019-01-28T21:31:00.352Z,17.53
2019-01-28T21:33:30.973Z,18.17
2019-01-28T21:36:19.480Z,19.80
2019-01-28T21:38:51.374Z,13.33
2019-01-28T21:41:21.911Z,16.13
2019-01-28T21:43:52.383Z,15.07
2019-01-28T21:46:22.979Z,14.43
2019-01-28T21:48:53.504Z,15.93
2019-01-28T21:51:24.296Z,14.83
2019-01-28T21:53:54.916Z,10.23
2019-01-28T21:56:25.409Z,7.37
2019-01-28T21:58:56.092Z,9.47
2019-01-28T22:01:26.543Z,11.67
2019-01-28T22:03:56.982Z,8.13
2019-01-28T22:06:27.463Z,9.80
2019-01-28T22:08:57.943Z,11.33
2019-01-28T22:11:28.411Z,13.03
2019-01-28T22:13:58.846Z,11.87
2019-01-28T22:16:29.318Z,8.33
2019-01-28T22:18:59.971Z,10.97
2019-01-28T22:21:30.478Z,6.63
2019-01-28T22:24:01.016Z,12.77
2019-01-28T22:26:31.484Z,10.20
2019-01-28T22:29:01.968Z,10.40
2019-01-28T22:31:32.511Z,14.07
2019-01-28T22:34:03.026Z,10.83
2019-01-28T22:36:33.508Z,12.20
2019-01-28T22:39:05.603Z,13.37
2019-01-28T22:41:36.038Z,16.63
2019-01-28T22:44:06.838Z,15.87
2019-01-28T22:46:37.253Z,17.97
2019-01-28T22:49:07.751Z,12.43
2019-01-28T22:51:38.423Z,12.20
2019-01-28T22:54:08.993Z,12.70
2019-01-28T22:56:39.531Z,10.17
2019-01-28T22:59:10.074Z,9.33
2019-01-28T23:01:42.088Z,11.47
2019-01-28T23:04:12.526Z,17.00
2019-01-28T23:06:43.027Z,10.30
2019-01-28T23:09:13.455Z,11.00
2019-01-28T23:11:43.934Z,10.70
2019-01-28T23:14:14.406Z,11.13
2019-01-28T23:16:44.834Z,11.00
2019-01-28T23:19:15.262Z,13.73
2019-01-28T23:21:45.690Z,13.03
2019-01-28T23:24:16.171Z,17.30
2019-01-28T23:26:46.656Z,16.93
2019-01-28T23:29:17.090Z,14.80
2019-01-28T23:31:47.501Z,14.57
2019-01-28T23:34:17.926Z,14.77
2019-01-28T23:36:48.354Z,10.70
2019-01-28T23:39:18.785Z,13.70
2019-01-28T23:41:49.263Z,18.50
2019-01-28T23:44:19.730Z,17.13
2019-01-28T23:46:50.173Z,13.40
2019-01-28T23:49:20.667Z,11.90
2019-01-28T23:51:51.260Z,14.57
2019-01-28T23:54:21.886Z,18.07
2019-01-28T23:56:52.282Z,12.07
2019-01-28T23:59:22.924Z,9.10
